sensor_id;sensor_type;location;lat;lon;timestamp;P1;durP1;ratioP1;P2;durP2;ratioP2
12554;SDS011;6343;50.868;4.700;2022-08-19T00:01:15;8.50;;;7.70;;
12554;SDS011;6343;50.868;4.700;2022-08-19T00:03:41;11.27;;;8.47;;
12554;SDS011;6343;50.868;4.700;2022-08-19T00:06:07;10.53;;;8.90;;
12554;SDS011;6343;50.868;4.700;2022-08-19T00:08:34;9.80;;;8.80;;
12554;SDS011;6343;50.868;4.700;2022-08-19T00:11:00;11.17;;;10.00;;
12554;SDS011;6343;50.868;4.700;2022-08-19T00:13:27;9.57;;;8.67;;
12554;SDS011;6343;50.868;4.700;2022-08-19T00:15:54;10.03;;;9.03;;
12554;SDS011;6343;50.868;4.700;2022-08-19T00:18:20;11.97;;;9.93;;
12554;SDS011;6343;50.868;4.700;2022-08-19T00:20:46;12.00;;;10.20;;
12554;SDS011;6343;50.868;4.700;2022-08-19T00:23:12;11.17;;;10.00;;
12554;SDS011;6343;50.868;4.700;2022-08-19T00:25:38;11.77;;;10.67;;
12554;SDS011;6343;50.868;4.700;2022-08-19T00:28:04;12.23;;;11.03;;
12554;SDS011;6343;50.868;4.700;2022-08-19T00:30:30;15.67;;;10.80;;
12554;SDS011;6343;50.868;4.700;2022-08-19T00:32:56;11.13;;;10.07;;
12554;SDS011;6343;50.868;4.700;2022-08-19T00:35:23;12.30;;;11.00;;
12554;SDS011;6343;50.868;4.700;2022-08-19T00:37:49;12.93;;;10.73;;
12554;SDS011;6343;50.868;4.700;2022-08-19T00:40:16;17.90;;;10.67;;
12554;SDS011;6343;50.868;4.700;2022-08-19T00:42:43;12.77;;;11.43;;
12554;SDS011;6343;50.868;4.700;2022-08-19T00:45:11;12.10;;;10.90;;
12554;SDS011;6343;50.868;4.700;2022-08-19T00:47:38;11.47;;;10.37;;
12554;SDS011;6343;50.868;4.700;2022-08-19T00:50:04;13.10;;;11.70;;
12554;SDS011;6343;50.868;4.700;2022-08-19T00:52:35;12.20;;;10.73;;
12554;SDS011;6343;50.868;4.700;2022-08-19T00:55:03;14.17;;;12.33;;
12554;SDS011;6343;50.868;4.700;2022-08-19T00:57:39;14.33;;;12.33;;
12554;SDS011;6343;50.868;4.700;2022-08-19T01:00:07;14.80;;;11.43;;
12554;SDS011;6343;50.868;4.700;2022-08-19T01:02:35;12.67;;;11.37;;
12554;SDS011;6343;50.868;4.700;2022-08-19T01:05:03;13.40;;;12.00;;
12554;SDS011;6343;50.868;4.700;2022-08-19T01:07:30;14.73;;;11.60;;
12554;SDS011;6343;50.868;4.700;2022-08-19T01:09:56;15.63;;;12.77;;
12554;SDS011;6343;50.868;4.700;2022-08-19T01:12:22;16.10;;;12.20;;
12554;SDS011;6343;50.868;4.700;2022-08-19T01:14:48;15.00;;;12.20;;
12554;SDS011;6343;50.868;4.700;2022-08-19T01:17:16;12.80;;;11.50;;
12554;SDS011;6343;50.868;4.700;2022-08-19T01:19:43;12.97;;;11.67;;
12554;SDS011;6343;50.868;4.700;2022-08-19T01:22:14;14.90;;;12.50;;
12554;SDS011;6343;50.868;4.700;2022-08-19T01:24:41;17.10;;;12.50;;
12554;SDS011;6343;50.868;4.700;2022-08-19T01:27:08;15.90;;;13.50;;
12554;SDS011;6343;50.868;4.700;2022-08-19T01:29:34;19.37;;;14.87;;
12554;SDS011;6343;50.868;4.700;2022-08-19T01:32:02;22.33;;;15.93;;
12554;SDS011;6343;50.868;4.700;2022-08-19T01:34:28;24.73;;;16.47;;
12554;SDS011;6343;50.868;4.700;2022-08-19T01:36:54;21.13;;;16.73;;
12554;SDS011;6343;50.868;4.700;2022-08-19T01:39:21;19.30;;;16.77;;
12554;SDS011;6343;50.868;4.700;2022-08-19T01:41:48;21.60;;;17.80;;
12554;SDS011;6343;50.868;4.700;2022-08-19T01:44:15;23.70;;;17.30;;
12554;SDS011;6343;50.868;4.700;2022-08-19T01:46:41;22.20;;;17.27;;
12554;SDS011;6343;50.868;4.700;2022-08-19T01:49:08;20.40;;;17.17;;
12554;SDS011;6343;50.868;4.700;2022-08-19T01:51:35;23.27;;;18.37;;
12554;SDS011;6343;50.868;4.700;2022-08-19T01:54:01;22.27;;;17.50;;
12554;SDS011;6343;50.868;4.700;2022-08-19T01:56:27;24.03;;;19.00;;
12554;SDS011;6343;50.868;4.700;2022-08-19T01:59:00;23.87;;;18.90;;
12554;SDS011;6343;50.868;4.700;2022-08-19T02:01:27;24.40;;;19.20;;
12554;SDS011;6343;50.868;4.700;2022-08-19T02:03:57;26.40;;;17.90;;
12554;SDS011;6343;50.868;4.700;2022-08-19T02:06:23;28.47;;;20.13;;
12554;SDS011;6343;50.868;4.700;2022-08-19T02:08:49;20.50;;;16.43;;
12554;SDS011;6343;50.868;4.700;2022-08-19T02:11:20;22.07;;;18.87;;
12554;SDS011;6343;50.868;4.700;2022-08-19T02:13:46;27.60;;;19.63;;
12554;SDS011;6343;50.868;4.700;2022-08-19T02:16:14;27.30;;;20.07;;
12554;SDS011;6343;50.868;4.700;2022-08-19T02:18:40;27.53;;;19.10;;
12554;SDS011;6343;50.868;4.700;2022-08-19T02:21:06;30.63;;;21.30;;
12554;SDS011;6343;50.868;4.700;2022-08-19T02:23:32;26.67;;;20.23;;
12554;SDS011;6343;50.868;4.700;2022-08-19T02:25:58;26.93;;;20.20;;
12554;SDS011;6343;50.868;4.700;2022-08-19T02:28:24;25.73;;;20.13;;
12554;SDS011;6343;50.868;4.700;2022-08-19T02:30:50;24.30;;;19.80;;
12554;SDS011;6343;50.868;4.700;2022-08-19T02:33:16;24.90;;;19.43;;
12554;SDS011;6343;50.868;4.700;2022-08-19T02:35:43;24.67;;;19.50;;
12554;SDS011;6343;50.868;4.700;2022-08-19T02:38:09;26.60;;;19.07;;
12554;SDS011;6343;50.868;4.700;2022-08-19T02:40:51;22.93;;;17.47;;
12554;SDS011;6343;50.868;4.700;2022-08-19T02:43:18;23.60;;;18.73;;
12554;SDS011;6343;50.868;4.700;2022-08-19T02:45:47;27.63;;;20.50;;
12554;SDS011;6343;50.868;4.700;2022-08-19T02:48:15;25.80;;;18.80;;
12554;SDS011;6343;50.868;4.700;2022-08-19T02:50:42;25.03;;;18.50;;
12554;SDS011;6343;50.868;4.700;2022-08-19T02:53:08;22.80;;;18.30;;
12554;SDS011;6343;50.868;4.700;2022-08-19T02:55:34;24.53;;;20.30;;
12554;SDS011;6343;50.868;4.700;2022-08-19T02:58:00;27.43;;;18.97;;
12554;SDS011;6343;50.868;4.700;2022-08-19T03:00:27;24.63;;;19.40;;
12554;SDS011;6343;50.868;4.700;2022-08-19T03:02:53;22.93;;;16.07;;
12554;SDS011;6343;50.868;4.700;2022-08-19T03:05:19;20.70;;;15.40;;
12554;SDS011;6343;50.868;4.700;2022-08-19T03:07:45;22.90;;;16.40;;
12554;SDS011;6343;50.868;4.700;2022-08-19T03:10:11;23.10;;;17.67;;
12554;SDS011;6343;50.868;4.700;2022-08-19T03:12:38;20.00;;;16.27;;
12554;SDS011;6343;50.868;4.700;2022-08-19T03:15:05;22.30;;;17.50;;
12554;SDS011;6343;50.868;4.700;2022-08-19T03:17:32;21.40;;;16.87;;
12554;SDS011;6343;50.868;4.700;2022-08-19T03:19:58;24.13;;;18.17;;
12554;SDS011;6343;50.868;4.700;2022-08-19T03:22:24;24.73;;;18.50;;
12554;SDS011;6343;50.868;4.700;2022-08-19T03:24:50;28.83;;;19.93;;
12554;SDS011;6343;50.868;4.700;2022-08-19T03:27:16;22.97;;;17.40;;
12554;SDS011;6343;50.868;4.700;2022-08-19T03:29:43;27.23;;;20.87;;
12554;SDS011;6343;50.868;4.700;2022-08-19T03:32:10;29.10;;;21.13;;
12554;SDS011;6343;50.868;4.700;2022-08-19T03:34:37;29.37;;;20.00;;
12554;SDS011;6343;50.868;4.700;2022-08-19T03:37:06;27.00;;;19.43;;
12554;SDS011;6343;50.868;4.700;2022-08-19T03:39:32;22.13;;;17.03;;
12554;SDS011;6343;50.868;4.700;2022-08-19T03:41:58;26.30;;;19.33;;
12554;SDS011;6343;50.868;4.700;2022-08-19T03:44:27;24.13;;;18.23;;
12554;SDS011;6343;50.868;4.700;2022-08-19T03:46:55;26.73;;;19.17;;
12554;SDS011;6343;50.868;4.700;2022-08-19T03:49:22;28.23;;;19.73;;
12554;SDS011;6343;50.868;4.700;2022-08-19T03:51:48;20.73;;;16.50;;
12554;SDS011;6343;50.868;4.700;2022-08-19T03:54:16;24.57;;;17.87;;
12554;SDS011;6343;50.868;4.700;2022-08-19T03:56:43;23.93;;;18.70;;
12554;SDS011;6343;50.868;4.700;2022-08-19T03:59:10;26.07;;;19.97;;
12554;SDS011;6343;50.868;4.700;2022-08-19T04:01:38;26.53;;;19.87;;
12554;SDS011;6343;50.868;4.700;2022-08-19T04:04:04;21.20;;;16.40;;
12554;SDS011;6343;50.868;4.700;2022-08-19T04:06:32;25.50;;;17.90;;
12554;SDS011;6343;50.868;4.700;2022-08-19T04:08:59;23.20;;;17.37;;
12554;SDS011;6343;50.868;4.700;2022-08-19T04:11:48;23.37;;;18.90;;
12554;SDS011;6343;50.868;4.700;2022-08-19T04:14:14;26.47;;;17.77;;
12554;SDS011;6343;50.868;4.700;2022-08-19T04:16:41;23.27;;;17.83;;
12554;SDS011;6343;50.868;4.700;2022-08-19T04:19:09;21.37;;;16.23;;
12554;SDS011;6343;50.868;4.700;2022-08-19T04:21:35;22.10;;;17.40;;
12554;SDS011;6343;50.868;4.700;2022-08-19T04:24:02;22.97;;;17.47;;
12554;SDS011;6343;50.868;4.700;2022-08-19T04:26:29;25.93;;;19.50;;
12554;SDS011;6343;50.868;4.700;2022-08-19T04:28:57;22.60;;;17.13;;
12554;SDS011;6343;50.868;4.700;2022-08-19T04:31:24;24.70;;;17.60;;
12554;SDS011;6343;50.868;4.700;2022-08-19T04:34:01;26.27;;;17.77;;
12554;SDS011;6343;50.868;4.700;2022-08-19T04:36:28;28.47;;;17.40;;
12554;SDS011;6343;50.868;4.700;2022-08-19T04:38:56;26.20;;;16.93;;
12554;SDS011;6343;50.868;4.700;2022-08-19T04:41:22;24.43;;;18.00;;
12554;SDS011;6343;50.868;4.700;2022-08-19T04:44:07;21.03;;;15.97;;
12554;SDS011;6343;50.868;4.700;2022-08-19T04:46:33;21.13;;;16.17;;
12554;SDS011;6343;50.868;4.700;2022-08-19T04:49:00;15.50;;;12.67;;
12554;SDS011;6343;50.868;4.700;2022-08-19T04:51:26;20.37;;;16.20;;
12554;SDS011;6343;50.868;4.700;2022-08-19T04:53:52;21.50;;;15.10;;
12554;SDS011;6343;50.868;4.700;2022-08-19T04:56:19;22.33;;;15.70;;
12554;SDS011;6343;50.868;4.700;2022-08-19T04:58:48;22.20;;;15.43;;
12554;SDS011;6343;50.868;4.700;2022-08-19T05:01:23;21.40;;;15.60;;
12554;SDS011;6343;50.868;4.700;2022-08-19T05:03:49;27.67;;;16.50;;
12554;SDS011;6343;50.868;4.700;2022-08-19T05:06:17;22.27;;;15.70;;
12554;SDS011;6343;50.868;4.700;2022-08-19T05:08:44;21.00;;;16.17;;
12554;SDS011;6343;50.868;4.700;2022-08-19T05:11:27;22.13;;;15.80;;
12554;SDS011;6343;50.868;4.700;2022-08-19T05:13:54;20.93;;;15.73;;
12554;SDS011;6343;50.868;4.700;2022-08-19T05:16:21;19.97;;;14.53;;
12554;SDS011;6343;50.868;4.700;2022-08-19T05:18:48;21.93;;;14.80;;
12554;SDS011;6343;50.868;4.700;2022-08-19T05:21:33;24.00;;;15.13;;
12554;SDS011;6343;50.868;4.700;2022-08-19T05:24:18;23.03;;;15.07;;
12554;SDS011;6343;50.868;4.700;2022-08-19T05:26:48;23.40;;;15.13;;
12554;SDS011;6343;50.868;4.700;2022-08-19T05:29:15;20.70;;;16.03;;
12554;SDS011;6343;50.868;4.700;2022-08-19T05:31:41;24.53;;;15.90;;
12554;SDS011;6343;50.868;4.700;2022-08-19T05:34:07;20.70;;;13.97;;
12554;SDS011;6343;50.868;4.700;2022-08-19T05:36:35;23.20;;;15.50;;
12554;SDS011;6343;50.868;4.700;2022-08-19T05:39:03;20.47;;;15.20;;
12554;SDS011;6343;50.868;4.700;2022-08-19T05:41:29;24.93;;;15.50;;
12554;SDS011;6343;50.868;4.700;2022-08-19T05:43:56;18.37;;;14.13;;
12554;SDS011;6343;50.868;4.700;2022-08-19T05:46:23;22.93;;;14.83;;
12554;SDS011;6343;50.868;4.700;2022-08-19T05:48:49;23.77;;;16.47;;
12554;SDS011;6343;50.868;4.700;2022-08-19T05:51:15;25.63;;;16.00;;
12554;SDS011;6343;50.868;4.700;2022-08-19T05:53:42;26.03;;;15.97;;
12554;SDS011;6343;50.868;4.700;2022-08-19T05:56:11;21.63;;;15.23;;
12554;SDS011;6343;50.868;4.700;2022-08-19T05:58:38;18.97;;;13.67;;
12554;SDS011;6343;50.868;4.700;2022-08-19T06:01:09;23.40;;;16.63;;
12554;SDS011;6343;50.868;4.700;2022-08-19T06:03:36;28.67;;;17.17;;
12554;SDS011;6343;50.868;4.700;2022-08-19T06:06:03;22.40;;;14.77;;
12554;SDS011;6343;50.868;4.700;2022-08-19T06:08:29;22.03;;;15.40;;
12554;SDS011;6343;50.868;4.700;2022-08-19T06:10:55;21.33;;;16.63;;
12554;SDS011;6343;50.868;4.700;2022-08-19T06:16:19;24.03;;;16.03;;
12554;SDS011;6343;50.868;4.700;2022-08-19T06:18:54;19.50;;;14.97;;
12554;SDS011;6343;50.868;4.700;2022-08-19T06:21:23;21.80;;;15.23;;
12554;SDS011;6343;50.868;4.700;2022-08-19T06:23:49;19.90;;;14.37;;
12554;SDS011;6343;50.868;4.700;2022-08-19T06:26:16;26.40;;;15.83;;
12554;SDS011;6343;50.868;4.700;2022-08-19T06:28:43;21.27;;;13.77;;
12554;SDS011;6343;50.868;4.700;2022-08-19T06:31:15;24.90;;;14.00;;
12554;SDS011;6343;50.868;4.700;2022-08-19T06:33:42;18.87;;;13.53;;
12554;SDS011;6343;50.868;4.700;2022-08-19T06:38:44;25.47;;;14.97;;
12554;SDS011;6343;50.868;4.700;2022-08-19T06:41:10;22.13;;;14.03;;
12554;SDS011;6343;50.868;4.700;2022-08-19T06:43:36;19.70;;;14.20;;
12554;SDS011;6343;50.868;4.700;2022-08-19T06:46:02;16.77;;;12.60;;
12554;SDS011;6343;50.868;4.700;2022-08-19T06:48:29;21.07;;;12.83;;
12554;SDS011;6343;50.868;4.700;2022-08-19T06:50:55;17.73;;;13.63;;
12554;SDS011;6343;50.868;4.700;2022-08-19T06:53:21;16.47;;;12.93;;
12554;SDS011;6343;50.868;4.700;2022-08-19T06:55:47;20.30;;;13.27;;
12554;SDS011;6343;50.868;4.700;2022-08-19T06:58:25;23.07;;;13.33;;
12554;SDS011;6343;50.868;4.700;2022-08-19T07:00:51;17.77;;;12.07;;
12554;SDS011;6343;50.868;4.700;2022-08-19T07:03:17;16.57;;;11.33;;
12554;SDS011;6343;50.868;4.700;2022-08-19T07:05:43;15.43;;;10.17;;
12554;SDS011;6343;50.868;4.700;2022-08-19T07:08:09;16.13;;;10.20;;
12554;SDS011;6343;50.868;4.700;2022-08-19T07:10:35;14.40;;;9.87;;
12554;SDS011;6343;50.868;4.700;2022-08-19T07:13:02;12.73;;;9.87;;
12554;SDS011;6343;50.868;4.700;2022-08-19T07:15:28;13.73;;;9.70;;
12554;SDS011;6343;50.868;4.700;2022-08-19T07:17:55;13.23;;;9.77;;
12554;SDS011;6343;50.868;4.700;2022-08-19T07:20:21;14.10;;;9.60;;
12554;SDS011;6343;50.868;4.700;2022-08-19T07:22:48;15.13;;;8.70;;
12554;SDS011;6343;50.868;4.700;2022-08-19T07:25:15;10.97;;;8.20;;
12554;SDS011;6343;50.868;4.700;2022-08-19T07:27:42;12.17;;;8.43;;
12554;SDS011;6343;50.868;4.700;2022-08-19T07:30:09;13.17;;;8.40;;
12554;SDS011;6343;50.868;4.700;2022-08-19T07:32:37;14.53;;;8.37;;
12554;SDS011;6343;50.868;4.700;2022-08-19T07:35:03;10.45;;;7.40;;
12554;SDS011;6343;50.868;4.700;2022-08-19T07:37:30;12.43;;;7.30;;
12554;SDS011;6343;50.868;4.700;2022-08-19T07:39:56;10.80;;;6.80;;
12554;SDS011;6343;50.868;4.700;2022-08-19T07:42:22;13.32;;;6.93;;
12554;SDS011;6343;50.868;4.700;2022-08-19T07:44:48;12.80;;;5.85;;
12554;SDS011;6343;50.868;4.700;2022-08-19T07:47:14;8.02;;;5.90;;
12554;SDS011;6343;50.868;4.700;2022-08-19T07:49:42;6.60;;;4.93;;
12554;SDS011;6343;50.868;4.700;2022-08-19T07:52:08;7.30;;;4.53;;
12554;SDS011;6343;50.868;4.700;2022-08-19T07:54:35;6.60;;;4.10;;
12554;SDS011;6343;50.868;4.700;2022-08-19T07:57:02;8.30;;;4.55;;
12554;SDS011;6343;50.868;4.700;2022-08-19T07:59:28;10.68;;;4.10;;
12554;SDS011;6343;50.868;4.700;2022-08-19T08:01:55;5.53;;;4.05;;
12554;SDS011;6343;50.868;4.700;2022-08-19T08:04:21;5.05;;;3.45;;
12554;SDS011;6343;50.868;4.700;2022-08-19T08:07:06;8.88;;;3.92;;
12554;SDS011;6343;50.868;4.700;2022-08-19T08:09:51;6.70;;;3.67;;
12554;SDS011;6343;50.868;4.700;2022-08-19T08:12:29;6.82;;;3.47;;
12554;SDS011;6343;50.868;4.700;2022-08-19T08:15:00;4.50;;;3.42;;
12554;SDS011;6343;50.868;4.700;2022-08-19T08:17:29;8.32;;;4.40;;
12554;SDS011;6343;50.868;4.700;2022-08-19T08:19:57;6.10;;;3.80;;
12554;SDS011;6343;50.868;4.700;2022-08-19T08:22:23;7.53;;;4.53;;
12554;SDS011;6343;50.868;4.700;2022-08-19T08:25:13;8.15;;;3.70;;
12554;SDS011;6343;50.868;4.700;2022-08-19T08:27:40;4.47;;;3.63;;
12554;SDS011;6343;50.868;4.700;2022-08-19T08:30:08;9.80;;;3.78;;
12554;SDS011;6343;50.868;4.700;2022-08-19T08:32:35;5.05;;;3.88;;
12554;SDS011;6343;50.868;4.700;2022-08-19T08:35:02;9.18;;;4.80;;
12554;SDS011;6343;50.868;4.700;2022-08-19T08:37:28;8.18;;;4.50;;
12554;SDS011;6343;50.868;4.700;2022-08-19T08:39:55;6.45;;;4.20;;
12554;SDS011;6343;50.868;4.700;2022-08-19T08:42:27;8.90;;;4.13;;
12554;SDS011;6343;50.868;4.700;2022-08-19T08:45:03;6.95;;;4.25;;
12554;SDS011;6343;50.868;4.700;2022-08-19T08:47:34;5.85;;;3.90;;
12554;SDS011;6343;50.868;4.700;2022-08-19T08:50:03;11.68;;;4.35;;
12554;SDS011;6343;50.868;4.700;2022-08-19T08:52:31;6.25;;;3.80;;
12554;SDS011;6343;50.868;4.700;2022-08-19T08:55:07;4.43;;;3.67;;
12554;SDS011;6343;50.868;4.700;2022-08-19T09:00:42;8.55;;;3.85;;
12554;SDS011;6343;50.868;4.700;2022-08-19T09:03:06;11.02;;;3.85;;
12554;SDS011;6343;50.868;4.700;2022-08-19T09:05:58;5.10;;;3.78;;
12554;SDS011;6343;50.868;4.700;2022-08-19T09:11:08;7.03;;;3.80;;
12554;SDS011;6343;50.868;4.700;2022-08-19T09:16:02;7.47;;;3.65;;
12554;SDS011;6343;50.868;4.700;2022-08-19T09:18:45;8.02;;;3.35;;
12554;SDS011;6343;50.868;4.700;2022-08-19T09:21:12;4.72;;;3.60;;
12554;SDS011;6343;50.868;4.700;2022-08-19T09:23:38;4.28;;;2.90;;
12554;SDS011;6343;50.868;4.700;2022-08-19T09:26:08;5.25;;;3.35;;
12554;SDS011;6343;50.868;4.700;2022-08-19T09:28:34;10.50;;;3.28;;
12554;SDS011;6343;50.868;4.700;2022-08-19T09:31:02;7.50;;;3.17;;
12554;SDS011;6343;50.868;4.700;2022-08-19T09:33:28;618.38;;;58.53;;
12554;SDS011;6343;50.868;4.700;2022-08-19T09:36:07;25.90;;;5.93;;
12554;SDS011;6343;50.868;4.700;2022-08-19T09:38:33;20.77;;;4.40;;
12554;SDS011;6343;50.868;4.700;2022-08-19T09:41:04;11.20;;;4.00;;
12554;SDS011;6343;50.868;4.700;2022-08-19T09:43:31;7.43;;;3.03;;
12554;SDS011;6343;50.868;4.700;2022-08-19T09:45:59;5.90;;;2.85;;
12554;SDS011;6343;50.868;4.700;2022-08-19T09:48:25;8.23;;;3.05;;
12554;SDS011;6343;50.868;4.700;2022-08-19T09:50:51;13.52;;;3.20;;
12554;SDS011;6343;50.868;4.700;2022-08-19T09:53:18;6.63;;;2.63;;
12554;SDS011;6343;50.868;4.700;2022-08-19T09:55:47;5.93;;;2.92;;
12554;SDS011;6343;50.868;4.700;2022-08-19T09:58:14;119.50;;;10.23;;
12554;SDS011;6343;50.868;4.700;2022-08-19T10:00:40;15.45;;;4.38;;
12554;SDS011;6343;50.868;4.700;2022-08-19T10:03:06;12.75;;;3.33;;
12554;SDS011;6343;50.868;4.700;2022-08-19T10:05:32;123.10;;;10.73;;
12554;SDS011;6343;50.868;4.700;2022-08-19T10:08:13;25.02;;;4.57;;
12554;SDS011;6343;50.868;4.700;2022-08-19T10:10:40;7.43;;;3.78;;
12554;SDS011;6343;50.868;4.700;2022-08-19T10:13:08;4.18;;;2.90;;
12554;SDS011;6343;50.868;4.700;2022-08-19T10:15:35;6.00;;;3.33;;
12554;SDS011;6343;50.868;4.700;2022-08-19T10:18:02;3.63;;;3.05;;
12554;SDS011;6343;50.868;4.700;2022-08-19T10:20:28;3.67;;;2.75;;
12554;SDS011;6343;50.868;4.700;2022-08-19T10:22:55;3.47;;;2.75;;
12554;SDS011;6343;50.868;4.700;2022-08-19T10:25:21;4.15;;;3.00;;
12554;SDS011;6343;50.868;4.700;2022-08-19T10:27:47;6.05;;;3.15;;
12554;SDS011;6343;50.868;4.700;2022-08-19T10:30:13;5.60;;;2.92;;
12554;SDS011;6343;50.868;4.700;2022-08-19T10:32:39;3.95;;;3.00;;
12554;SDS011;6343;50.868;4.700;2022-08-19T10:35:05;4.15;;;3.13;;
12554;SDS011;6343;50.868;4.700;2022-08-19T10:37:33;4.50;;;3.15;;
12554;SDS011;6343;50.868;4.700;2022-08-19T10:40:00;6.43;;;3.28;;
12554;SDS011;6343;50.868;4.700;2022-08-19T10:42:27;9.27;;;3.20;;
12554;SDS011;6343;50.868;4.700;2022-08-19T10:44:53;8.35;;;3.40;;
12554;SDS011;6343;50.868;4.700;2022-08-19T10:47:19;5.80;;;3.50;;
12554;SDS011;6343;50.868;4.700;2022-08-19T10:49:48;6.28;;;3.00;;
12554;SDS011;6343;50.868;4.700;2022-08-19T10:52:32;5.22;;;3.05;;
12554;SDS011;6343;50.868;4.700;2022-08-19T10:55:08;8.45;;;3.00;;
12554;SDS011;6343;50.868;4.700;2022-08-19T10:57:52;4.80;;;3.10;;
12554;SDS011;6343;50.868;4.700;2022-08-19T11:00:21;159.77;;;12.30;;
12554;SDS011;6343;50.868;4.700;2022-08-19T11:02:48;7.90;;;3.03;;
12554;SDS011;6343;50.868;4.700;2022-08-19T11:05:14;9.27;;;3.35;;
12554;SDS011;6343;50.868;4.700;2022-08-19T11:07:42;10.52;;;3.60;;
12554;SDS011;6343;50.868;4.700;2022-08-19T11:10:10;30.70;;;4.00;;
12554;SDS011;6343;50.868;4.700;2022-08-19T11:12:36;3.20;;;2.65;;
12554;SDS011;6343;50.868;4.700;2022-08-19T11:15:05;4.95;;;2.83;;
12554;SDS011;6343;50.868;4.700;2022-08-19T11:17:33;5.70;;;2.63;;
12554;SDS011;6343;50.868;4.700;2022-08-19T11:19:59;15.07;;;2.97;;
12554;SDS011;6343;50.868;4.700;2022-08-19T11:22:28;13.48;;;3.17;;
12554;SDS011;6343;50.868;4.700;2022-08-19T11:24:54;8.23;;;2.78;;
12554;SDS011;6343;50.868;4.700;2022-08-19T11:27:20;3.55;;;2.55;;
12554;SDS011;6343;50.868;4.700;2022-08-19T11:29:46;2.47;;;2.28;;
12554;SDS011;6343;50.868;4.700;2022-08-19T11:32:12;11.07;;;3.78;;
12554;SDS011;6343;50.868;4.700;2022-08-19T11:34:40;152.10;;;13.93;;
12554;SDS011;6343;50.868;4.700;2022-08-19T11:37:06;3.53;;;3.05;;
12554;SDS011;6343;50.868;4.700;2022-08-19T11:39:34;3.95;;;2.75;;
12554;SDS011;6343;50.868;4.700;2022-08-19T11:42:02;13.38;;;3.13;;
12554;SDS011;6343;50.868;4.700;2022-08-19T11:44:49;7.63;;;3.17;;
12554;SDS011;6343;50.868;4.700;2022-08-19T11:47:15;41.03;;;5.82;;
12554;SDS011;6343;50.868;4.700;2022-08-19T11:49:41;4.47;;;2.75;;
12554;SDS011;6343;50.868;4.700;2022-08-19T11:52:10;8.05;;;3.50;;
12554;SDS011;6343;50.868;4.700;2022-08-19T11:54:36;6.30;;;3.17;;
12554;SDS011;6343;50.868;4.700;2022-08-19T11:57:02;4.47;;;3.40;;
12554;SDS011;6343;50.868;4.700;2022-08-19T11:59:29;12.52;;;4.07;;
12554;SDS011;6343;50.868;4.700;2022-08-19T12:01:55;8.13;;;4.05;;
12554;SDS011;6343;50.868;4.700;2022-08-19T12:04:22;4.13;;;3.20;;
12554;SDS011;6343;50.868;4.700;2022-08-19T12:06:48;4.70;;;3.45;;
12554;SDS011;6343;50.868;4.700;2022-08-19T12:09:15;4.85;;;3.90;;
12554;SDS011;6343;50.868;4.700;2022-08-19T12:11:42;5.88;;;3.45;;
12554;SDS011;6343;50.868;4.700;2022-08-19T12:14:12;5.00;;;3.70;;
12554;SDS011;6343;50.868;4.700;2022-08-19T12:16:39;5.30;;;4.18;;
12554;SDS011;6343;50.868;4.700;2022-08-19T12:19:06;29.55;;;5.82;;
12554;SDS011;6343;50.868;4.700;2022-08-19T12:21:33;9.55;;;4.30;;
12554;SDS011;6343;50.868;4.700;2022-08-19T12:24:00;5.22;;;4.40;;
12554;SDS011;6343;50.868;4.700;2022-08-19T12:26:27;7.28;;;5.13;;
12554;SDS011;6343;50.868;4.700;2022-08-19T12:28:53;8.07;;;4.88;;
12554;SDS011;6343;50.868;4.700;2022-08-19T12:31:20;7.88;;;5.03;;
12554;SDS011;6343;50.868;4.700;2022-08-19T12:33:46;6.63;;;5.05;;
12554;SDS011;6343;50.868;4.700;2022-08-19T12:36:13;7.22;;;5.50;;
12554;SDS011;6343;50.868;4.700;2022-08-19T12:38:40;8.68;;;5.30;;
12554;SDS011;6343;50.868;4.700;2022-08-19T12:41:12;7.05;;;4.97;;
12554;SDS011;6343;50.868;4.700;2022-08-19T12:43:38;5.60;;;4.47;;
12554;SDS011;6343;50.868;4.700;2022-08-19T12:46:05;6.97;;;5.10;;
12554;SDS011;6343;50.868;4.700;2022-08-19T12:48:31;5.25;;;4.75;;
12554;SDS011;6343;50.868;4.700;2022-08-19T12:50:58;8.05;;;5.05;;
12554;SDS011;6343;50.868;4.700;2022-08-19T12:53:24;5.35;;;4.28;;
12554;SDS011;6343;50.868;4.700;2022-08-19T12:55:57;5.40;;;4.25;;
12554;SDS011;6343;50.868;4.700;2022-08-19T12:58:24;5.57;;;4.13;;
12554;SDS011;6343;50.868;4.700;2022-08-19T13:00:51;5.05;;;4.20;;
12554;SDS011;6343;50.868;4.700;2022-08-19T13:03:17;5.75;;;4.13;;
12554;SDS011;6343;50.868;4.700;2022-08-19T13:05:43;5.75;;;4.10;;
12554;SDS011;6343;50.868;4.700;2022-08-19T13:08:09;3.97;;;3.35;;
12554;SDS011;6343;50.868;4.700;2022-08-19T13:10:36;4.97;;;4.20;;
12554;SDS011;6343;50.868;4.700;2022-08-19T13:13:05;5.10;;;4.28;;
12554;SDS011;6343;50.868;4.700;2022-08-19T13:15:35;4.72;;;3.97;;
12554;SDS011;6343;50.868;4.700;2022-08-19T13:18:02;6.40;;;3.50;;
12554;SDS011;6343;50.868;4.700;2022-08-19T13:20:28;5.10;;;3.25;;
12554;SDS011;6343;50.868;4.700;2022-08-19T13:22:55;3.88;;;3.50;;
12554;SDS011;6343;50.868;4.700;2022-08-19T13:25:22;3.72;;;3.38;;
12554;SDS011;6343;50.868;4.700;2022-08-19T13:27:48;4.55;;;3.40;;
12554;SDS011;6343;50.868;4.700;2022-08-19T13:30:15;5.18;;;3.60;;
12554;SDS011;6343;50.868;4.700;2022-08-19T13:33:00;3.67;;;2.75;;
12554;SDS011;6343;50.868;4.700;2022-08-19T13:35:45;3.35;;;2.60;;
12554;SDS011;6343;50.868;4.700;2022-08-19T13:38:16;4.63;;;2.75;;
12554;SDS011;6343;50.868;4.700;2022-08-19T13:40:43;3.05;;;2.70;;
12554;SDS011;6343;50.868;4.700;2022-08-19T13:43:09;5.40;;;3.05;;
12554;SDS011;6343;50.868;4.700;2022-08-19T13:45:35;2.50;;;2.30;;
12554;SDS011;6343;50.868;4.700;2022-08-19T13:48:03;5.05;;;2.22;;
12554;SDS011;6343;50.868;4.700;2022-08-19T13:50:33;2.28;;;1.70;;
12554;SDS011;6343;50.868;4.700;2022-08-19T13:53:02;5.50;;;1.98;;
12554;SDS011;6343;50.868;4.700;2022-08-19T13:55:29;3.33;;;1.50;;
12554;SDS011;6343;50.868;4.700;2022-08-19T13:57:56;3.45;;;1.65;;
12554;SDS011;6343;50.868;4.700;2022-08-19T14:00:23;2.90;;;1.70;;
12554;SDS011;6343;50.868;4.700;2022-08-19T14:02:51;2.03;;;1.42;;
12554;SDS011;6343;50.868;4.700;2022-08-19T14:05:18;4.95;;;1.60;;
12554;SDS011;6343;50.868;4.700;2022-08-19T14:07:44;1.50;;;1.40;;
12554;SDS011;6343;50.868;4.700;2022-08-19T14:10:11;1.40;;;1.30;;
12554;SDS011;6343;50.868;4.700;2022-08-19T14:12:40;2.45;;;1.60;;
12554;SDS011;6343;50.868;4.700;2022-08-19T14:15:07;3.05;;;1.90;;
12554;SDS011;6343;50.868;4.700;2022-08-19T14:17:34;3.28;;;1.45;;
12554;SDS011;6343;50.868;4.700;2022-08-19T14:20:02;1.80;;;1.30;;
12554;SDS011;6343;50.868;4.700;2022-08-19T14:22:32;3.25;;;1.50;;
12554;SDS011;6343;50.868;4.700;2022-08-19T14:24:58;2.83;;;1.58;;
12554;SDS011;6343;50.868;4.700;2022-08-19T14:27:24;2.22;;;1.38;;
12554;SDS011;6343;50.868;4.700;2022-08-19T14:29:51;1.15;;;1.05;;
12554;SDS011;6343;50.868;4.700;2022-08-19T14:32:17;3.15;;;1.25;;
12554;SDS011;6343;50.868;4.700;2022-08-19T14:34:44;5.22;;;1.50;;
12554;SDS011;6343;50.868;4.700;2022-08-19T14:37:11;1.92;;;1.30;;
12554;SDS011;6343;50.868;4.700;2022-08-19T14:39:39;1.85;;;1.20;;
12554;SDS011;6343;50.868;4.700;2022-08-19T14:42:09;7.65;;;1.40;;
12554;SDS011;6343;50.868;4.700;2022-08-19T14:44:35;2.95;;;1.30;;
12554;SDS011;6343;50.868;4.700;2022-08-19T14:47:01;3.88;;;1.38;;
12554;SDS011;6343;50.868;4.700;2022-08-19T14:49:27;3.88;;;1.92;;
12554;SDS011;6343;50.868;4.700;2022-08-19T14:51:53;6.15;;;1.60;;
12554;SDS011;6343;50.868;4.700;2022-08-19T14:54:20;2.28;;;1.60;;
12554;SDS011;6343;50.868;4.700;2022-08-19T14:56:46;7.22;;;1.40;;
12554;SDS011;6343;50.868;4.700;2022-08-19T14:59:13;18.92;;;1.80;;
12554;SDS011;6343;50.868;4.700;2022-08-19T15:01:39;2.15;;;1.23;;
12554;SDS011;6343;50.868;4.700;2022-08-19T15:04:05;2.22;;;1.27;;
12554;SDS011;6343;50.868;4.700;2022-08-19T15:06:31;2.55;;;1.27;;